createdAt,value
2023-01-08T07:57:13.509Z,2.38
2023-01-08T07:59:44.732Z,1.30
2023-01-08T08:02:13.287Z,2.45
2023-01-08T08:07:53.994Z,3.30
2023-01-08T08:10:21.221Z,1.05
2023-01-08T08:12:51.005Z,5.35
2023-01-08T08:15:18.565Z,1.85
2023-01-08T08:17:47.380Z,2.25
2023-01-08T08:20:14.909Z,0.93
2023-01-08T08:23:01.023Z,2.83
2023-01-08T08:25:28.592Z,0.90
2023-01-08T08:28:04.115Z,2.00
2023-01-08T08:30:42.763Z,2.92
2023-01-08T08:33:14.643Z,4.50
2023-01-08T08:35:52.331Z,2.30
2023-01-08T08:38:24.245Z,2.22
2023-01-08T08:41:21.553Z,1.67
2023-01-08T08:43:51.392Z,6.00
2023-01-08T08:46:18.972Z,4.82
2023-01-08T08:48:46.337Z,3.25
2023-01-08T08:51:14.155Z,5.80
2023-01-08T08:53:41.530Z,5.53
2023-01-08T08:56:08.723Z,2.63
2023-01-08T08:58:50.288Z,5.45
2023-01-08T09:01:17.162Z,6.78
2023-01-08T09:03:44.097Z,4.47
2023-01-08T09:06:14.550Z,2.30
2023-01-08T09:08:41.312Z,3.08
2023-01-08T09:11:08.767Z,6.70
2023-01-08T09:13:37.213Z,4.72
2023-01-08T09:16:05.064Z,4.00
2023-01-08T09:18:32.019Z,6.93
2023-01-08T09:20:59.198Z,6.28
2023-01-08T09:23:26.285Z,4.82
2023-01-08T09:26:00.337Z,4.55
2023-01-08T09:30:54.192Z,5.60
2023-01-08T09:33:43.508Z,7.32
2023-01-08T09:36:13.943Z,5.60
2023-01-08T09:38:40.832Z,4.97
2023-01-08T09:41:12.420Z,4.00
2023-01-08T09:46:15.240Z,4.40
2023-01-08T09:48:42.929Z,5.15
2023-01-08T09:51:13.588Z,5.18
2023-01-08T09:53:42.052Z,2.75
2023-01-08T09:56:17.197Z,4.53
2023-01-08T09:58:59.427Z,7.18
2023-01-08T10:04:14.669Z,5.28
2023-01-08T10:06:45.308Z,3.95
2023-01-08T10:09:15.015Z,4.20
2023-01-08T10:14:29.245Z,3.35
2023-01-08T10:17:21.208Z,4.78
2023-01-08T10:20:10.336Z,4.20
2023-01-08T10:22:39.311Z,3.63
2023-01-08T10:25:18.701Z,5.20
2023-01-08T10:27:54.130Z,7.18
2023-01-08T10:30:23.853Z,4.55
2023-01-08T10:32:55.644Z,5.20
2023-01-08T10:35:33.662Z,6.45
2023-01-08T10:38:01.495Z,6.15
2023-01-08T10:40:36.674Z,6.90
2023-01-08T10:43:09.411Z,3.17
2023-01-08T10:45:36.399Z,4.38
2023-01-08T10:48:06.925Z,4.53
2023-01-08T10:50:35.089Z,3.47
2023-01-08T10:53:04.998Z,1.40
2023-01-08T10:55:37.643Z,3.20
2023-01-08T10:58:27.197Z,3.78
2023-01-08T11:00:54.140Z,3.25
2023-01-08T11:03:25.449Z,2.33
2023-01-08T11:05:54.624Z,3.25
2023-01-08T11:08:23.380Z,4.03
2023-01-08T11:11:02.674Z,3.50
2023-01-08T11:13:30.177Z,4.18
2023-01-08T11:16:06.167Z,3.22
2023-01-08T11:18:50.542Z,3.67
2023-01-08T11:24:21.365Z,3.05
2023-01-08T11:27:12.983Z,2.47
2023-01-08T11:30:07.289Z,1.83
2023-01-08T11:32:54.908Z,2.33
2023-01-08T11:35:24.803Z,3.25
2023-01-08T11:38:00.488Z,2.70
2023-01-08T11:40:41.210Z,2.38
2023-01-08T11:43:22.878Z,1.88
2023-01-08T11:46:02.469Z,2.92
2023-01-08T11:48:35.978Z,3.58
2023-01-08T11:51:24.967Z,3.08
2023-01-08T11:54:03.971Z,5.63
2023-01-08T11:57:05.229Z,4.22
2023-01-08T11:59:55.108Z,1.63
2023-01-08T12:02:54.781Z,4.63
2023-01-08T12:05:32.077Z,2.00
2023-01-08T12:08:21.192Z,3.00
2023-01-08T12:11:19.629Z,2.15
2023-01-08T12:13:59.730Z,1.55
2023-01-08T12:16:27.164Z,2.65
2023-01-08T12:19:15.404Z,2.42
2023-01-08T12:22:26.043Z,5.53
2023-01-08T12:24:55.673Z,2.13
2023-01-08T12:27:54.559Z,0.77
2023-01-08T12:30:25.460Z,1.40
2023-01-08T12:33:05.682Z,1.23
2023-01-08T12:35:41.849Z,1.40
2023-01-08T12:44:05.344Z,1.75
2023-01-08T12:46:48.332Z,0.95
2023-01-08T12:49:27.977Z,0.20
2023-01-08T12:52:03.499Z,0.25
2023-01-08T12:54:53.055Z,1.38
2023-01-08T12:57:26.322Z,2.70
2023-01-08T13:00:09.182Z,1.63
2023-01-08T13:02:52.547Z,1.83
2023-01-08T13:05:28.153Z,0.55
2023-01-08T13:08:03.543Z,2.00
2023-01-08T13:10:49.920Z,0.30
2023-01-08T13:13:24.367Z,1.77
2023-01-08T13:16:08.752Z,2.03
2023-01-08T13:21:33.543Z,2.50
2023-01-08T13:24:08.491Z,1.75
2023-01-08T13:27:00.190Z,1.48
2023-01-08T13:29:45.633Z,3.05
2023-01-08T13:33:15.469Z,0.77
2023-01-08T13:35:54.674Z,0.50
2023-01-08T13:38:34.588Z,0.90
2023-01-08T13:41:27.089Z,2.00
2023-01-08T13:46:51.358Z,0.32
2023-01-08T13:49:53.498Z,2.35
2023-01-08T13:52:58.646Z,1.50
2023-01-08T13:55:34.419Z,1.37
2023-01-08T14:00:58.437Z,0.32
2023-01-08T14:03:35.769Z,1.55
2023-01-08T14:06:11.552Z,3.13
2023-01-08T14:09:00.060Z,0.73
2023-01-08T14:11:35.434Z,1.15
2023-01-08T14:14:16.863Z,0.88
2023-01-08T14:16:44.535Z,1.10
2023-01-08T14:19:14.289Z,1.55
2023-01-08T14:21:45.273Z,0.65
2023-01-08T14:24:20.955Z,0.73
2023-01-08T14:27:05.159Z,1.35
2023-01-08T14:32:41.914Z,2.33
2023-01-08T14:35:14.475Z,0.52
2023-01-08T14:37:50.849Z,1.08
2023-01-08T14:40:19.417Z,0.38
2023-01-08T14:46:23.771Z,1.98
2023-01-08T14:48:57.379Z,0.70
2023-01-08T14:51:40.600Z,1.95
2023-01-08T14:54:22.414Z,0.70
2023-01-08T14:57:14.836Z,1.98
2023-01-08T14:59:57.279Z,0.55
2023-01-08T15:02:30.122Z,3.28
2023-01-08T15:08:40.536Z,2.88
2023-01-08T15:11:20.385Z,1.38
2023-01-08T15:13:48.472Z,0.73
2023-01-08T15:16:21.415Z,1.52
2023-01-08T15:18:52.887Z,1.77
2023-01-08T15:21:21.153Z,0.70
2023-01-08T15:23:51.639Z,2.28
2023-01-08T15:26:22.567Z,1.30
2023-01-08T15:28:55.951Z,2.22
2023-01-08T15:31:31.148Z,1.98
2023-01-08T15:33:59.735Z,1.15
2023-01-08T15:36:30.194Z,1.15
2023-01-08T15:38:57.046Z,0.60
2023-01-08T15:42:05.919Z,1.10
2023-01-08T15:44:33.222Z,2.75
2023-01-08T15:47:03.816Z,1.55
2023-01-08T15:49:41.156Z,1.08
2023-01-08T15:52:10.796Z,1.70
2023-01-08T15:54:38.464Z,1.83
2023-01-08T15:57:24.640Z,1.92
2023-01-08T16:11:43.495Z,1.60
2023-01-08T16:43:05.430Z,2.60
2023-01-08T16:46:01.296Z,0.60
2023-01-08T16:58:45.535Z,3.20
2023-01-08T17:09:27.263Z,1.63
2023-01-08T17:12:09.721Z,1.73
2023-01-08T17:18:13.428Z,2.28
2023-01-08T17:20:57.597Z,3.47
2023-01-08T17:23:31.681Z,3.08
2023-01-08T17:39:13.429Z,2.72
2023-01-08T18:00:03.365Z,3.17
2023-01-08T18:02:37.860Z,2.15
2023-01-08T18:05:17.418Z,2.78
2023-01-08T18:10:46.371Z,2.85
2023-01-08T18:13:26.824Z,2.42
2023-01-08T18:18:41.075Z,1.00
2023-01-08T18:21:21.793Z,1.15
2023-01-08T18:23:57.568Z,2.25
2023-01-08T18:26:31.750Z,3.50
2023-01-08T18:32:34.823Z,2.15
2023-01-08T18:35:11.518Z,2.28
2023-01-08T18:37:55.634Z,1.90
2023-01-08T18:43:32.752Z,2.50
2023-01-08T18:46:12.815Z,1.35
2023-01-08T18:48:53.842Z,2.33
2023-01-08T18:54:08.451Z,1.38
